FW1685 Weather Reports


time (UTC)temp
C
wind
direction
speed
KPH
gust
KPH
rain 1hr
cm
rain 24hr
cm
rain mn
cm
humidity
%
barometer
mb
20200229073843 12 112 16.1 20.9 0.00 0.00 0.00 64 1023.3
20200229072844 12 157 8.0 11.3 0.00 0.00 0.00 63 1023.2
20200229071844 12 180 3.2 8.0 0.00 0.00 0.00 62 1023.4
20200229070844 12 157 8.0 14.5 0.00 0.00 0.00 62 1023.3
20200229065843 12 157 6.4 9.7 0.00 0.00 0.00 62 1023.7
20200229064845 12 157 4.8 8.0 0.00 0.00 0.00 61 1023.7
20200229063843 12 90 6.4 11.3 0.00 0.00 0.00 61 1023.7
20200229062844 12 112 6.4 9.7 0.00 0.00 0.00 60 1023.9
20200229061844 12 112 9.7 12.9 0.00 0.00 0.00 60 1024.0
20200229060843 12 90 12.9 17.7 0.00 0.00 0.00 61 1024.1
20200229055844 12 90 12.9 19.3 0.00 0.00 0.00 61 1024.2
20200229054844 12 112 17.7 22.5 0.00 0.00 0.00 62 1024.1
20200229053844 12 112 11.3 16.1 0.00 0.00 0.00 61 1024.1
20200229052845 13 112 9.7 12.9 0.00 0.00 0.00 60 1024.0
20200229051844 13 112 14.5 19.3 0.00 0.00 0.00 60 1024.0
20200229050844 13 90 16.1 24.1 0.00 0.00 0.00 60 1024.1
20200229045844 13 90 14.5 20.9 0.00 0.00 0.00 60 1023.8
20200229044845 13 90 17.7 25.7 0.00 0.00 0.00 60 1023.8
20200229043844 13 90 16.1 19.3 0.00 0.00 0.00 60 1023.8
20200229042845 13 112 14.5 17.7 0.00 0.00 0.00 59 1023.8
20200229041844 13 112 12.9 19.3 0.00 0.00 0.00 60 1023.8
20200229040844 13 90 14.5 20.9 0.00 0.00 0.00 60 1023.8
20200229035844 13 90 19.3 22.5 0.00 0.00 0.00 60 1023.7
20200229034845 13 90 14.5 20.9 0.00 0.00 0.00 60 1023.7
20200229033844 13 0.0 1.6 0.00 0.00 0.00 61 1023.5
20200229032844 13 67 3.2 4.8 0.00 0.00 0.00 61 1023.4
20200229031846 13 90 1.6 3.2 0.00 0.00 0.00 62 1022.9
20200229030844 13 90 8.0 14.5 0.00 0.00 0.00 62 1022.8
20200229025844 13 112 6.4 9.7 0.00 0.00 0.00 62 1022.5
20200229024844 13 112 1.6 4.8 0.00 0.00 0.00 62 1022.1
20200229023844 13 135 1.6 3.2 0.00 0.00 0.00 62 1022.1
20200229022857 14 67 3.2 4.8 0.00 0.00 0.00 61 1021.9
20200229021845 14 90 1.6 4.8 0.00 0.00 0.00 61 1021.7
20200229020844 14 90 4.8 11.3 0.00 0.00 0.00 60 1021.5
20200229015845 14 90 1.6 3.2 0.00 0.00 0.00 60 1021.2
20200229014844 15 112 6.4 9.7 0.00 0.00 0.00 59 1020.8
20200229013844 15 90 9.7 12.9 0.00 0.00 0.00 57 1020.6
20200229012844 15 112 9.7 14.5 0.00 0.00 0.00 57 1020.2
20200229011843 15 112 11.3 16.1 0.00 0.00 0.00 57 1020.1
20200229010844 15 112 9.7 14.5 0.00 0.00 0.00 56 1019.9
20200229005845 16 112 11.3 17.7 0.00 0.00 0.00 55 1019.8
20200229004844 16 90 8.0 12.9 0.00 0.00 0.00 55 1019.8
20200229003845 16 90 14.5 20.9 0.00 0.00 0.00 53 1019.6
20200229002844 17 90 14.5 17.7 0.00 0.00 0.00 52 1019.5
20200229001843 17 90 14.5 19.3 0.00 0.00 0.00 51 1019.7
20200229000844 18 90 17.7 25.7 0.00 0.00 0.00 50 1019.6
20200228235844 18 90 11.3 22.5 0.00 0.00 0.00 48 1019.6
20200228234844 19 90 19.3 25.7 0.00 0.00 0.00 47 1019.5
20200228233844 20 112 14.5 19.3 0.00 0.00 0.00 46 1019.2
20200228232844 20 90 17.7 22.5 0.00 0.00 0.00 45 1019.4
20200228231844 21 90 16.1 20.9 0.00 0.00 0.00 44 1019.3
20200228230844 21 90 17.7 22.5 0.00 0.00 0.00 43 1019.2
20200228225843 21 90 16.1 20.9 0.00 0.00 0.00 42 1019.2
20200228224844 22 112 17.7 25.7 0.00 0.00 0.00 42 1019.1
20200228223843 22 135 17.7 24.1 0.00 0.00 0.00 42 1019.2
20200228222844 22 112 14.5 17.7 0.00 0.00 0.00 42 1019.5
20200228221843 22 112 16.1 20.9 0.00 0.00 0.00 41 1019.2
20200228220843 23 112 16.1 20.9 0.00 0.00 0.00 40 1019.4
20200228215919 23 112 11.3 22.5 0.00 0.00 0.00 40 1019.5
20200228214845 23 90 12.9 16.1 0.00 0.00 0.00 39 1019.5
20200228213843 23 112 16.1 20.9 0.00 0.00 0.00 38 1019.8
20200228212843 23 135 12.9 17.7 0.00 0.00 0.00 37 1019.7
20200228211843 23 90 11.3 16.1 0.00 0.00 0.00 38 1019.8
20200228210844 23 135 20.9 27.4 0.00 0.00 0.00 36 1019.8
20200228205843 23 90 14.5 17.7 0.00 0.00 0.00 37 1019.9
20200228204844 23 90 12.9 16.1 0.00 0.00 0.00 37 1020.0
20200228203843 23 157 20.9 29.0 0.00 0.00 0.00 38 1020.2
20200228202844 23 112 16.1 25.7 0.00 0.00 0.00 37 1020.2
20200228201844 23 112 16.1 22.5 0.00 0.00 0.00 38 1020.5
20200228200844 23 112 16.1 24.1 0.00 0.00 0.00 38 1020.5
20200228195844 23 180 11.3 14.5 0.00 0.00 0.00 38 1020.7
20200228194844 23 135 16.1 20.9 0.00 0.00 0.00 39 1020.8
20200228193843 23 135 14.5 19.3 0.00 0.00 0.00 38 1021.0
20200228192843 23 202 14.5 17.7 0.00 0.00 0.00 38 1021.2
20200228191843 23 135 14.5 20.9 0.00 0.00 0.00 39 1021.3
20200228190844 22 157 11.3 17.7 0.00 0.00 0.00 39 1021.4
20200228185843 23 157 12.9 16.1 0.00 0.00 0.00 38 1021.6
20200228184843 23 112 14.5 19.3 0.00 0.00 0.00 38 1021.9
20200228183843 22 202 11.3 17.7 0.00 0.00 0.00 40 1021.9
20200228182843 22 157 9.7 17.7 0.00 0.00 0.00 41 1022.3
20200228181843 22 157 14.5 19.3 0.00 0.00 0.00 41 1022.3
20200228180843 22 157 16.1 29.0 0.00 0.00 0.00 40 1022.6
20200228175843 22 157 12.9 20.9 0.00 0.00 0.00 40 1022.6
20200228174843 22 157 17.7 20.9 0.00 0.00 0.00 42 1022.8
20200228173843 21 202 9.7 20.9 0.00 0.00 0.00 44 1022.9
20200228172843 21 157 14.5 22.5 0.00 0.00 0.00 43 1023.2
20200228171843 21 157 14.5 19.3 0.00 0.00 0.00 43 1023.4
20200228170843 21 202 11.3 17.7 0.00 0.00 0.00 43 1023.4
20200228165843 20 157 11.3 14.5 0.00 0.00 0.00 45 1023.4
20200228164843 20 135 11.3 19.3 0.00 0.00 0.00 45 1023.6
20200228163843 20 157 12.9 20.9 0.00 0.00 0.00 46 1023.5
20200228162842 19 112 12.9 20.9 0.00 0.00 0.00 45 1023.7
20200228161843 19 135 11.3 16.1 0.00 0.00 0.00 46 1023.6
20200228160846 19 135 14.5 17.7 0.00 0.00 0.00 46 1023.7
20200228155845 18 157 11.3 16.1 0.00 0.00 0.00 48 1023.8
20200228154845 18 112 11.3 14.5 0.00 0.00 0.00 48 1023.7
20200228153845 17 135 9.7 12.9 0.00 0.00 0.00 51 1023.4
20200228152845 17 157 6.4 12.9 0.00 0.00 0.00 52 1023.5
20200228151845 16 112 6.4 9.7 0.00 0.00 0.00 55 1023.3
20200228150845 15 112 8.0 12.9 0.00 0.00 0.00 58 1023.2
20200228145845 15 135 9.7 12.9 0.00 0.00 0.00 61 1023.0
20200228144844 13 112 4.8 6.4 0.00 0.00 0.00 65 1022.8
20200228143845 13 90 6.4 9.7 0.00 0.00 0.00 65 1022.8
20200228142845 12 135 4.8 8.0 0.00 0.00 0.00 66 1022.8
20200228141844 12 135 3.2 4.8 0.00 0.00 0.00 68 1022.6
20200228140844 11 90 4.8 6.4 0.00 0.00 0.00 71 1022.4
20200228135844 10 90 6.4 9.7 0.00 0.00 0.00 74 1022.3
20200228134844 9 112 4.8 9.7 0.00 0.00 0.00 76 1022.1
20200228133844 8 90 4.8 9.7 0.00 0.00 0.00 78 1021.9
20200228132844 8 90 4.8 8.0 0.00 0.00 0.00 80 1021.7
20200228131845 7 112 3.2 3.2 0.00 0.00 0.00 82 1021.7
20200228130844 7 0.0 1.6 0.00 0.00 0.00 82 1021.5
20200228125844 7 0.0 1.6 0.00 0.00 0.00 82 1021.4
20200228124844 7 0.0 1.6 0.00 0.00 0.00 82 1021.4
20200228123844 7 0.0 1.6 0.00 0.00 0.00 81 1021.5
20200228122845 7 112 1.6 3.2 0.00 0.00 0.00 81 1021.5
20200228121845 7 90 1.6 3.2 0.00 0.00 0.00 81 1021.6
20200228120844 7 112 4.8 6.4 0.00 0.00 0.00 81 1021.5
20200228115844 7 135 4.8 8.0 0.00 0.00 0.00 81 1021.4
20200228114844 7 135 6.4 8.0 0.00 0.00 0.00 80 1021.4
20200228113844 8 112 6.4 9.7 0.00 0.00 0.00 80 1021.4
20200228112844 8 112 4.8 6.4 0.00 0.00 0.00 80 1021.4
20200228111844 8 135 4.8 6.4 0.00 0.00 0.00 80 1021.5
20200228110844 8 90 4.8 6.4 0.00 0.00 0.00 80 1021.4
20200228105844 8 90 4.8 8.0 0.00 0.00 0.00 80 1021.5
20200228104844 8 90 6.4 11.3 0.00 0.00 0.00 80 1021.4
20200228103844 8 90 6.4 9.7 0.00 0.00 0.00 80 1021.6
20200228102844 8 112 6.4 9.7 0.00 0.00 0.00 80 1021.4
20200228101844 8 90 11.3 14.5 0.00 0.00 0.00 80 1021.4
20200228100844 8 90 9.7 12.9 0.00 0.00 0.00 79 1021.4
20200228095845 8 90 9.7 11.3 0.00 0.00 0.00 78 1021.4
20200228094844 8 90 6.4 9.7 0.00 0.00 0.00 77 1021.5
20200228093844 9 90 8.0 11.3 0.00 0.00 0.00 77 1021.5
20200228092844 9 90 9.7 14.5 0.00 0.00 0.00 77 1021.5
20200228091850 9 112 9.7 11.3 0.00 0.00 0.00 76 1021.3
20200228090844 9 135 6.4 11.3 0.00 0.00 0.00 75 1021.5
20200228085844 10 112 6.4 9.7 0.00 0.00 0.00 74 1021.5
20200228084844 10 112 8.0 11.3 0.00 0.00 0.00 74 1021.5
20200228083844 10 112 6.4 9.7 0.00 0.00 0.00 74 1021.4
20200228082844 10 135 8.0 12.9 0.00 0.00 0.00 74 1021.5
20200228081844 10 135 4.8 6.4 0.00 0.00 0.00 74 1021.6
20200228080844 10 112 6.4 9.7 0.00 0.00 0.00 74 1021.7
20200228075844 10 112 6.4 9.7 0.00 0.00 0.00 73 1021.7
20200228074844 10 135 8.0 12.9 0.00 0.00 0.00 72 1021.7